LEBL

Barcelona International Airport

ICAO Code LEBL
IATA Code BCN
Name Barcelona International Airport
Location Barcelona, Catalonia, ES
Elevation 12 Feet / 3.7 Meters
Latitude 41.29710007
Longitude 2.07845998
METAR LEBL 251730Z 21007KT 9999 FEW040 19/15 Q1017 NOSIG
Extra information Display Charts
Runway Length Width Surface Elevation
02 8294 ft 147 ft ASP 7 ft
07L 10997 ft 196 ft ASP 8 ft
07R 8727 ft 196 ft ASP 8 ft
20 8294 ft 147 ft ASP 12 ft
25R 10997 ft 196 ft ASP 10 ft
25L 8727 ft 196 ft ASP 8 ft